Time;durP1;ratioP1;P1;durP2;ratioP2;P2;SDS_P1;SDS_P2;PMS_P1;PMS_P2;Temp;Humidity;BMP_temperature;BMP_pressure;BME280_temperature;BME280_humidity;BME280_pressure;Samples;Min_cycle;Max_cycle;Signal;HPM_P1;HPM_P2
2022/01/23 00:01:48;;;;;;;8.90;4.85;;;;;;;1.74;41.07;95480.78;5009562;28;20205;-61
2022/01/23 00:04:15;;;;;;;13.27;5.85;;;;;;;1.33;41.72;95488.38;5008734;28;20204;-60
2022/01/23 00:06:44;;;;;;;9.55;5.60;;;;;;;1.96;40.57;95485.72;5009541;28;20182;-61
2022/01/23 00:09:14;;;;;;;9.43;5.53;;;;;;;1.85;40.95;95485.44;5008742;28;20198;-60
2022/01/23 00:11:49;;;;;;;10.10;5.40;;;;;;;1.80;40.55;95491.19;5009124;28;20651;-61
2022/01/23 00:19:41;;;;;;;9.82;5.38;;;;;;;1.23;41.99;95498.19;5008536;28;20321;-60
2022/01/23 00:22:10;;;;;;;8.65;4.88;;;;;;;1.16;42.29;95496.53;5009270;28;20740;-61
2022/01/23 00:32:47;;;;;;;11.75;4.50;;;;;;;0.68;43.59;95488.44;5008998;28;20220;-60
2022/01/23 00:35:14;;;;;;;11.15;5.25;;;;;;;0.88;43.56;95509.31;5009009;28;20217;-60
2022/01/23 00:37:41;;;;;;;9.82;5.50;;;;;;;1.14;43.26;95498.47;5008924;28;20665;-62
2022/01/23 00:40:09;;;;;;;9.35;4.95;;;;;;;1.10;43.54;95502.41;5008351;28;20221;-60
2022/01/23 00:42:37;;;;;;;8.68;4.75;;;;;;;1.01;43.06;95499.94;5009695;28;20296;-60
2022/01/23 00:47:45;;;;;;;6.60;4.22;;;;;;;0.69;44.31;95504.72;5009025;28;20193;-61
2022/01/23 00:50:11;;;;;;;8.45;4.78;;;;;;;0.36;45.13;95501.72;5007528;28;20197;-60
2022/01/23 00:52:38;;;;;;;7.80;4.65;;;;;;;0.86;44.21;95504.34;5007857;28;20205;-61
2022/01/23 00:55:06;;;;;;;8.40;4.88;;;;;;;1.19;43.98;95501.34;5008386;28;20224;-62
2022/01/23 00:57:33;;;;;;;7.72;4.70;;;;;;;1.00;44.10;95493.16;5008960;28;20213;-61
2022/01/23 01:00:02;;;;;;;9.88;5.13;;;;;;;0.93;44.79;95512.94;5023476;28;20760;-61
2022/01/23 01:02:29;;;;;;;8.63;5.00;;;;;;;0.96;44.70;95501.47;5008958;28;20217;-61
2022/01/23 01:04:56;;;;;;;9.82;4.70;;;;;;;1.23;44.21;95507.72;5009162;28;20218;-61
2022/01/23 01:07:23;;;;;;;10.57;5.10;;;;;;;1.18;44.39;95510.03;5010979;28;20198;-61
2022/01/23 01:09:53;;;;;;;9.18;4.05;;;;;;;0.87;44.57;95505.94;5027336;28;20268;-60
2022/01/23 01:12:25;;;;;;;7.55;4.65;;;;;;;1.25;44.58;95510.91;5012604;28;20297;-60
2022/01/23 01:31:10;;;;;;;10.35;4.22;;;;;;;0.11;46.66;95520.19;5026737;28;20233;-62
2022/01/23 01:38:44;;;;;;;8.80;5.00;;;;;;;1.00;45.25;95503.50;5026478;28;20225;-61
2022/01/23 01:41:14;;;;;;;8.55;4.07;;;;;;;0.25;46.41;95509.09;5026369;28;20236;-59
2022/01/23 01:43:41;;;;;;;9.98;5.03;;;;;;;0.70;45.31;95504.53;5011776;28;20323;-61
2022/01/23 01:46:08;;;;;;;9.75;5.18;;;;;;;1.04;44.54;95509.91;5009901;28;20194;-61
2022/01/23 01:48:42;;;;;;;8.38;5.50;;;;;;;0.81;45.52;95506.66;5043003;28;20202;-61
2022/01/23 01:51:15;;;;;;;8.85;4.72;;;;;;;0.30;46.00;95504.19;5026337;28;20637;-62
2022/01/23 01:54:02;;;;;;;16.05;6.85;;;;;;;0.73;45.28;95501.59;5042785;28;20201;-62
2022/01/23 01:56:36;;;;;;;7.63;4.95;;;;;;;0.22;46.31;95514.59;5026639;28;20209;-61
2022/01/23 02:10:15;;;;;;;9.32;5.50;;;;;;;0.59;46.10;95532.56;5026512;28;20201;-62
2022/01/23 02:22:27;;;;;;;11.75;5.25;;;;;;;1.58;44.01;95518.00;5007634;28;20194;-61
2022/01/23 02:57:09;;;;;;;11.18;6.55;;;;;;;0.72;44.35;95551.59;5025640;28;20544;-60
2022/01/23 02:59:38;;;;;;;6.95;4.93;;;;;;;0.80;44.08;95548.91;5041755;28;20245;-60
2022/01/23 03:02:38;;;;;;;10.05;4.97;;;;;;;0.37;44.31;95541.97;5027008;28;20724;-61
2022/01/23 03:08:04;;;;;;;11.35;5.97;;;;;;;0.83;43.66;95538.25;5009735;28;20205;-62
2022/01/23 03:10:45;;;;;;;11.38;6.72;;;;;;;0.62;44.48;95545.88;5025475;28;20228;-60
2022/01/23 03:24:26;;;;;;;10.52;5.03;;;;;;;0.13;45.15;95549.94;5009910;28;20244;-61
2022/01/23 03:29:26;;;;;;;16.60;7.35;;;;;;;0.53;44.28;95546.19;5025146;28;20673;-60
2022/01/23 03:34:25;;;;;;;11.38;5.75;;;;;;;0.60;43.89;95558.16;5009239;28;20198;-61
2022/01/23 03:36:53;;;;;;;11.73;7.07;;;;;;;0.03;45.30;95558.91;5024890;28;20233;-60
2022/01/23 03:39:20;;;;;;;11.27;6.22;;;;;;;0.39;44.57;95565.81;5009128;28;20264;-60
2022/01/23 03:41:48;;;;;;;15.80;6.22;;;;;;;0.54;44.13;95551.16;5024870;28;20255;-61
2022/01/23 03:44:16;;;;;;;12.65;6.68;;;;;;;0.19;44.46;95574.22;5008972;28;20209;-60
2022/01/23 03:49:31;;;;;;;12.73;5.97;;;;;;;0.65;43.89;95566.19;5023903;28;20273;-60
2022/01/23 03:52:26;;;;;;;11.18;5.63;;;;;;;0.03;44.89;95575.16;5009034;28;20767;-60
2022/01/23 03:54:54;;;;;;;8.00;4.97;;;;;;;0.21;44.57;95573.06;5024330;28;20678;-61
2022/01/23 03:57:21;;;;;;;13.05;6.45;;;;;;;0.07;44.97;95573.84;5024996;28;20205;-61
2022/01/23 03:59:49;;;;;;;11.88;6.68;;;;;;;-0.20;45.16;95582.91;5024097;28;20837;-63
2022/01/23 04:02:16;;;;;;;11.77;5.97;;;;;;;0.09;44.88;95584.78;5040940;28;20281;-61
2022/01/23 04:04:43;;;;;;;12.25;6.22;;;;;;;0.14;44.19;95582.47;5008524;28;20676;-61
2022/01/23 04:07:21;;;;;;;14.10;6.15;;;;;;;-0.24;44.68;95583.44;5008074;28;20256;-61
2022/01/23 04:09:49;;;;;;;10.23;5.13;;;;;;;-0.51;45.33;95586.53;5008743;28;20583;-60
2022/01/23 04:33:54;;;;;;;11.68;6.75;;;;;;;1.01;42.48;95598.00;5008707;28;20664;-61
2022/01/23 05:01:13;;;;;;;13.10;7.10;;;;;;;1.84;40.30;95595.72;5027625;28;20225;-60
2022/01/23 05:07:09;;;;;;;12.80;6.70;;;;;;;1.03;41.63;95613.31;5029477;28;20224;-62
2022/01/23 05:09:54;;;;;;;50.88;22.33;;;;;;;0.84;41.40;95601.75;5012598;28;20299;-60
2022/01/23 05:12:53;;;;;;;13.80;7.32;;;;;;;0.89;41.92;95614.13;5011259;28;20275;-61
2022/01/23 05:15:21;;;;;;;13.27;7.28;;;;;;;1.02;41.74;95615.06;5027478;28;20205;-61
2022/01/23 05:17:50;;;;;;;10.63;5.80;;;;;;;0.99;40.88;95599.97;5026986;28;20287;-60
2022/01/23 05:20:19;;;;;;;15.50;6.60;;;;;;;1.36;40.17;95616.28;5012001;28;20723;-61
2022/01/23 05:22:52;;;;;;;12.10;6.18;;;;;;;1.62;40.18;95621.75;5011540;28;20217;-61
2022/01/23 05:25:27;;;;;;;11.73;5.85;;;;;;;1.76;39.65;95615.72;5027587;28;20216;-62
2022/01/23 05:27:54;;;;;;;13.25;6.85;;;;;;;1.40;40.20;95638.19;5010408;28;21000;-62
2022/01/23 05:30:22;;;;;;;10.45;6.00;;;;;;;1.34;40.31;95639.69;5012008;28;20190;-60
2022/01/23 05:32:51;;;;;;;9.65;5.88;;;;;;;1.35;40.76;95643.09;5011590;28;20585;-60
2022/01/23 05:35:20;;;;;;;11.90;6.20;;;;;;;1.35;40.24;95630.97;5043686;28;20193;-61
2022/01/23 05:37:50;;;;;;;11.45;5.80;;;;;;;1.52;40.06;95626.41;5026840;28;20208;-60
2022/01/23 05:40:22;;;;;;;9.65;5.80;;;;;;;1.65;39.38;95629.13;5027067;28;20224;-61
2022/01/23 05:42:51;;;;;;;11.00;5.50;;;;;;;1.79;39.55;95623.09;5026278;28;20228;-60
2022/01/23 05:45:20;;;;;;;9.98;5.65;;;;;;;1.29;40.19;95636.06;5010523;28;20723;-62
2022/01/23 05:48:05;;;;;;;10.00;5.60;;;;;;;1.69;39.78;95628.59;5011675;28;20244;-60
2022/01/23 05:50:51;;;;;;;43.67;16.98;;;;;;;2.37;38.33;95615.13;5011318;28;20639;-61
2022/01/23 05:53:36;;;;;;;13.70;7.72;;;;;;;1.66;39.19;95626.34;5009667;28;20573;-61
2022/01/23 05:56:26;;;;;;;11.60;6.80;;;;;;;1.94;38.96;95629.84;5027140;28;20258;-61
2022/01/23 05:58:56;;;;;;;12.25;6.30;;;;;;;2.17;38.77;95627.06;5011356;28;20230;-61
2022/01/23 06:01:28;;;;;;;11.05;6.20;;;;;;;2.33;38.40;95631.97;5026379;28;20234;-62
2022/01/23 06:04:15;;;;;;;9.48;6.10;;;;;;;2.54;37.81;95633.72;5010607;28;20306;-60
2022/01/23 06:07:14;;;;;;;10.35;6.38;;;;;;;2.30;38.11;95637.50;5021724;28;20213;-60
2022/01/23 06:09:54;;;;;;;13.35;6.22;;;;;;;2.14;38.49;95642.94;5025927;28;20205;-60
2022/01/23 06:12:22;;;;;;;11.38;6.18;;;;;;;2.00;38.78;95630.88;5026089;28;20646;-60
2022/01/23 06:14:49;;;;;;;13.23;6.20;;;;;;;2.60;38.05;95633.78;5010801;28;20281;-60
2022/01/23 06:17:16;;;;;;;9.77;5.78;;;;;;;2.42;38.03;95636.03;5009866;28;20367;-61
2022/01/23 06:20:02;;;;;;;13.20;6.13;;;;;;;2.53;38.32;95638.13;5010692;28;20268;-61
2022/01/23 06:22:48;;;;;;;12.70;6.05;;;;;;;2.26;38.30;95644.06;5011028;28;20200;-60
2022/01/23 06:25:36;;;;;;;11.57;6.13;;;;;;;1.67;39.05;95647.84;5011566;28;20730;-61
2022/01/23 06:28:14;;;;;;;16.50;10.10;;;;;;;2.40;38.51;95642.38;5025795;28;20201;-62
2022/01/23 06:30:41;;;;;;;11.30;6.63;;;;;;;1.98;38.74;95661.28;5010974;28;20725;-62
2022/01/23 06:33:08;;;;;;;13.50;6.70;;;;;;;2.25;37.94;95660.53;5010434;28;20198;-59
2022/01/23 06:35:37;;;;;;;14.90;8.48;;;;;;;2.10;38.25;95662.38;5025686;28;20206;-62
2022/01/23 06:38:04;;;;;;;15.23;7.35;;;;;;;1.44;38.99;95666.03;5010687;28;20557;-61
2022/01/23 06:40:31;;;;;;;17.75;8.30;;;;;;;2.28;37.83;95660.16;5025378;28;20226;-61
2022/01/23 06:43:14;;;;;;;13.52;7.57;;;;;;;1.99;38.38;95660.28;5024562;28;20202;-62
2022/01/23 06:46:07;;;;;;;13.80;7.07;;;;;;;2.09;38.03;95660.78;5010071;28;20328;-60
2022/01/23 06:48:34;;;;;;;13.75;7.82;;;;;;;1.43;39.32;95655.88;5025013;28;20592;-60
2022/01/23 06:51:01;;;;;;;12.57;6.63;;;;;;;0.69;40.44;95656.88;5009567;28;20332;-61
2022/01/23 06:53:28;;;;;;;9.40;4.82;;;;;;;1.19;40.00;95656.22;5025546;28;20240;-60
2022/01/23 06:55:55;;;;;;;12.35;6.88;;;;;;;2.36;38.21;95652.28;5026019;28;20202;-61
2022/01/23 06:58:23;;;;;;;12.93;6.65;;;;;;;2.16;38.34;95651.31;5041843;28;20213;-61
2022/01/23 07:00:50;;;;;;;11.88;6.45;;;;;;;2.82;37.67;95642.28;5025546;28;20708;-61
2022/01/23 07:03:17;;;;;;;13.05;7.18;;;;;;;2.98;37.49;95636.81;5010308;28;20293;-62
2022/01/23 07:06:02;;;;;;;9.25;5.35;;;;;;;2.53;37.51;95642.47;5010095;28;20333;-61
2022/01/23 07:08:54;;;;;;;13.18;7.70;;;;;;;2.25;38.05;95655.38;5009186;28;20264;-62
2022/01/23 07:11:32;;;;;;;11.60;4.75;;;;;;;1.79;38.56;95648.94;5025099;28;20494;-61
2022/01/23 07:14:25;;;;;;;11.90;6.68;;;;;;;1.79;38.53;95643.78;5010510;28;20249;-61
2022/01/23 07:16:58;;;;;;;13.55;7.35;;;;;;;2.13;38.33;95651.69;5025050;28;20251;-61
2022/01/23 07:19:51;;;;;;;13.55;7.07;;;;;;;3.53;37.14;95647.06;5009960;28;20733;-61
2022/01/23 07:22:27;;;;;;;13.00;7.07;;;;;;;3.25;37.28;95658.50;5012128;28;20231;-61
2022/01/23 07:25:00;;;;;;;14.25;6.47;;;;;;;2.43;38.05;95666.06;5027332;28;20228;-62
2022/01/23 07:27:30;;;;;;;11.82;6.65;;;;;;;1.89;38.44;95664.97;5025093;28;20205;-61
2022/01/23 07:30:00;;;;;;;13.05;7.57;;;;;;;2.40;38.60;95666.44;5024670;28;20202;-62
2022/01/23 07:32:27;;;;;;;15.02;8.07;;;;;;;2.52;37.84;95641.66;5009990;28;20198;-61
2022/01/23 07:34:54;;;;;;;14.40;8.52;;;;;;;2.44;38.55;95670.28;5020878;28;20186;-62
2022/01/23 07:37:21;;;;;;;16.33;8.80;;;;;;;2.58;38.76;95659.03;5005527;28;20292;-61
2022/01/23 07:40:26;;;;;;;14.05;7.78;;;;;;;2.56;38.74;95653.25;4983780;28;20358;-61
2022/01/23 07:42:55;;;;;;;16.25;8.48;;;;;;;2.13;38.78;95656.06;4969169;28;20213;-60
2022/01/23 07:45:43;;;;;;;15.93;9.85;;;;;;;2.63;38.50;95655.88;4993146;28;20744;-61
2022/01/23 07:48:26;;;;;;;19.05;9.40;;;;;;;1.75;39.55;95652.91;5000570;28;20194;-60
2022/01/23 07:51:12;;;;;;;17.15;9.45;;;;;;;2.45;39.22;95651.16;4997202;28;20208;-60
2022/01/23 07:54:05;;;;;;;18.33;8.88;;;;;;;3.38;40.95;95640.41;4999675;28;21070;-61
2022/01/23 07:56:45;;;;;;;14.20;8.27;;;;;;;2.42;38.84;95651.56;5017529;28;20198;-60
2022/01/23 07:59:36;;;;;;;16.13;8.52;;;;;;;2.21;39.66;95651.56;5014867;28;20294;-61
2022/01/23 08:02:24;;;;;;;17.73;9.32;;;;;;;1.62;40.52;95676.00;4987077;28;20194;-59
2022/01/23 08:05:10;;;;;;;15.10;8.88;;;;;;;2.13;39.72;95653.47;4999248;28;20204;-60
2022/01/23 08:07:45;;;;;;;14.80;6.93;;;;;;;1.50;40.44;95654.19;5000922;28;20210;-57
2022/01/23 08:10:33;;;;;;;42.17;20.48;;;;;;;2.08;41.55;95665.16;4994492;28;20222;-61
2022/01/23 08:13:01;;;;;;;17.92;9.65;;;;;;;2.29;39.62;95661.78;4991999;28;20194;-62
2022/01/23 08:15:32;;;;;;;14.07;7.55;;;;;;;1.83;39.68;95656.16;4992257;28;20648;-61
2022/01/23 08:18:04;;;;;;;15.32;9.10;;;;;;;2.09;39.47;95653.03;5001151;28;20229;-61
2022/01/23 08:20:33;;;;;;;14.35;8.35;;;;;;;1.34;40.59;95669.88;5012797;28;20216;-62
2022/01/23 08:23:02;;;;;;;43.83;22.15;;;;;;;2.12;39.78;95670.75;5012635;28;20202;-62
2022/01/23 08:25:32;;;;;;;34.88;17.40;;;;;;;2.20;40.74;95662.88;5013202;28;20253;-61
2022/01/23 08:28:01;;;;;;;22.15;10.80;;;;;;;1.88;40.80;95665.97;4996733;28;20221;-62
2022/01/23 08:30:28;;;;;;;17.38;9.88;;;;;;;2.06;39.70;95668.94;4993140;28;20202;-61
2022/01/23 08:32:55;;;;;;;15.45;7.72;;;;;;;2.00;39.34;95667.88;4992948;28;20279;-61
2022/01/23 08:35:22;;;;;;;14.32;7.93;;;;;;;2.10;38.47;95661.59;4992958;28;20721;-63
2022/01/23 08:37:49;;;;;;;13.82;7.05;;;;;;;2.15;38.29;95665.25;5012078;28;20226;-62
2022/01/23 08:40:20;;;;;;;14.98;7.43;;;;;;;1.67;39.19;95668.50;5013160;28;20225;-60
2022/01/23 08:42:47;;;;;;;11.85;6.32;;;;;;;1.87;38.98;95669.50;5000914;28;20249;-63
2022/01/23 08:45:15;;;;;;;9.75;5.75;;;;;;;1.58;38.85;95667.81;4993660;28;20202;-62
2022/01/23 08:47:42;;;;;;;11.57;6.55;;;;;;;1.85;38.53;95653.38;4994184;28;20624;-61
2022/01/23 08:50:09;;;;;;;14.55;7.55;;;;;;;2.28;38.18;95655.00;5002111;28;20194;-61
2022/01/23 08:52:36;;;;;;;53.53;31.67;;;;;;;3.09;40.06;95644.84;4993923;28;20234;-61
2022/01/23 08:55:06;;;;;;;12.25;7.53;;;;;;;2.51;37.63;95660.78;4993826;28;20325;-60
2022/01/23 08:57:33;;;;;;;47.30;23.40;;;;;;;3.03;37.39;95650.78;5010958;28;20206;-60
2022/01/23 09:00:22;;;;;;;14.98;8.25;;;;;;;3.59;36.17;95642.88;5027625;28;20234;-60
2022/01/23 09:02:52;;;;;;;14.75;7.85;;;;;;;2.57;37.45;95649.69;5011935;28;20194;-60
2022/01/23 09:05:20;;;;;;;12.50;7.32;;;;;;;2.95;36.65;95648.34;5012512;28;20218;-61
2022/01/23 09:07:47;;;;;;;15.95;7.40;;;;;;;2.88;36.68;95657.84;5012412;28;20204;-62
2022/01/23 09:10:15;;;;;;;10.82;5.97;;;;;;;2.38;36.91;95665.84;5012463;28;20206;-62
2022/01/23 09:12:55;;;;;;;10.35;6.00;;;;;;;2.33;37.13;95657.84;5012159;28;20198;-60
2022/01/23 09:15:23;;;;;;;13.05;6.05;;;;;;;2.02;37.35;95659.94;5012499;28;20226;-61
2022/01/23 09:17:50;;;;;;;11.52;5.90;;;;;;;2.02;37.75;95667.69;5011600;28;20232;-61
2022/01/23 09:20:17;;;;;;;11.77;6.50;;;;;;;2.04;37.73;95663.13;5012492;28;20221;-61
2022/01/23 09:22:44;;;;;;;14.15;5.93;;;;;;;2.30;36.95;95663.38;5011475;28;20209;-60
2022/01/23 09:25:16;;;;;;;10.85;6.05;;;;;;;2.34;37.20;95658.63;5011932;28;20248;-60
2022/01/23 09:27:43;;;;;;;11.63;6.50;;;;;;;2.09;37.86;95660.78;5011494;28;20202;-61
2022/01/23 09:30:17;;;;;;;12.95;5.90;;;;;;;1.47;38.47;95655.34;5011796;28;20182;-60
2022/01/23 09:32:48;;;;;;;12.88;6.55;;;;;;;1.50;38.76;95670.47;5012030;28;20201;-57
2022/01/23 09:35:16;;;;;;;14.60;6.55;;;;;;;1.44;38.60;95652.34;5011404;28;20696;-62
2022/01/23 09:37:45;;;;;;;13.48;7.47;;;;;;;2.55;37.54;95650.84;5012140;28;20324;-57
2022/01/23 09:40:13;;;;;;;13.45;7.60;;;;;;;2.65;37.54;95653.91;5011806;28;20265;-56
2022/01/23 09:42:49;;;;;;;16.33;7.10;;;;;;;2.44;37.00;95647.00;5011999;28;20209;-59
2022/01/23 09:45:16;;;;;;;20.52;10.98;;;;;;;2.35;38.52;95635.19;5006950;28;20201;-64
2022/01/23 09:47:44;;;;;;;32.70;16.10;;;;;;;2.72;38.38;95634.84;4990805;28;20256;-68
2022/01/23 09:50:13;;;;;;;13.85;7.00;;;;;;;3.35;36.86;95627.84;4991885;28;20211;-59
2022/01/23 09:52:42;;;;;;;12.07;6.65;;;;;;;3.35;36.25;95635.59;4991840;28;20183;-57
2022/01/23 09:55:12;;;;;;;13.07;5.72;;;;;;;2.53;36.68;95629.53;4991492;28;20759;-59
2022/01/23 09:57:42;;;;;;;11.60;5.80;;;;;;;2.42;37.23;95625.69;5000179;28;20194;-58
2022/01/23 10:00:18;;;;;;;13.57;6.35;;;;;;;2.53;37.11;95627.75;5010871;28;20209;-59
2022/01/23 10:02:50;;;;;;;12.38;6.28;;;;;;;2.78;36.48;95631.50;5011140;28;20263;-59
2022/01/23 10:05:18;;;;;;;8.32;3.70;;;;;;;2.70;36.29;95629.06;5006574;28;20678;-60
2022/01/23 10:07:46;;;;;;;13.88;6.93;;;;;;;3.25;35.92;95611.88;4989740;28;20202;-60
2022/01/23 10:10:20;;;;;;;11.20;6.05;;;;;;;2.85;35.97;95610.84;4995405;28;20241;-60
2022/01/23 10:12:55;;;;;;;9.27;4.38;;;;;;;2.28;36.82;95618.78;4997605;28;20198;-61
2022/01/23 10:15:26;;;;;;;7.20;3.55;;;;;;;2.45;36.44;95620.13;4995374;28;20214;-62
2022/01/23 10:17:54;;;;;;;8.75;5.30;;;;;;;2.66;36.63;95602.00;4988946;28;20230;-60
2022/01/23 10:20:22;;;;;;;9.75;5.72;;;;;;;2.97;36.04;95593.81;4991339;28;20229;-60
2022/01/23 10:22:51;;;;;;;11.02;6.20;;;;;;;2.83;36.55;95602.47;4995897;28;20277;-60
2022/01/23 10:25:24;;;;;;;10.10;5.82;;;;;;;3.19;35.87;95607.44;5003709;28;20216;-61
2022/01/23 10:28:10;;;;;;;42.88;24.02;;;;;;;2.86;36.90;95587.38;4987298;28;20979;-56
2022/01/23 10:30:40;;;;;;;33.47;18.98;;;;;;;3.02;38.92;95602.59;4990835;28;20245;-56
2022/01/23 10:33:16;;;;;;;10.52;5.93;;;;;;;2.71;36.14;95593.66;4986267;28;20203;-60
2022/01/23 10:36:04;;;;;;;10.93;6.10;;;;;;;2.88;36.52;95590.56;4990232;28;20233;-58
2022/01/23 10:38:55;;;;;;;12.68;6.38;;;;;;;3.43;36.00;95578.47;4991243;28;20716;-61
2022/01/23 10:41:42;;;;;;;11.07;4.68;;;;;;;2.75;36.03;95584.53;4994521;28;20226;-56
2022/01/23 10:47:52;;;;;;;19.50;9.18;;;;;;;3.19;35.58;95587.53;4985296;28;20714;-60
2022/01/23 10:50:06;;;;;;;14.18;6.00;;;;;;;2.98;35.84;95579.84;4993036;28;20738;-61
2022/01/23 10:52:39;;;;;;;12.98;6.22;;;;;;;3.49;35.39;95575.06;4988221;28;20198;-63
2022/01/23 10:55:12;;;;;;;11.52;6.43;;;;;;;3.72;34.94;95580.75;4987333;28;20207;-61
2022/01/23 10:57:44;;;;;;;10.05;5.20;;;;;;;3.82;34.81;95568.97;4989613;28;20609;-62
2022/01/23 11:00:25;;;;;;;9.95;5.82;;;;;;;3.56;35.00;95573.31;4997011;28;20310;-62
2022/01/23 11:02:54;;;;;;;10.70;5.13;;;;;;;3.71;34.40;95564.38;4989250;28;20249;-60
2022/01/23 11:05:38;;;;;;;15.00;6.05;;;;;;;3.42;34.80;95550.94;4990761;28;20197;-62
2022/01/23 11:08:19;;;;;;;11.18;6.05;;;;;;;3.44;34.43;95564.50;4993209;28;20206;-62
2022/01/23 11:10:59;;;;;;;8.45;5.03;;;;;;;3.38;34.33;95560.09;4987642;28;20571;-62
2022/01/23 11:19:39;;;;;;;10.15;4.65;;;;;;;3.29;34.29;95528.41;4987654;28;20583;-62
2022/01/23 11:22:14;;;;;;;13.38;5.68;;;;;;;3.84;33.50;95546.25;4990169;28;20217;-62
2022/01/23 11:24:48;;;;;;;8.95;5.13;;;;;;;3.68;33.77;95540.66;4988457;28;20195;-63
2022/01/23 11:27:17;;;;;;;9.85;4.72;;;;;;;3.51;34.11;95529.84;4992307;28;20210;-62
2022/01/23 11:30:00;;;;;;;7.43;4.10;;;;;;;2.78;35.17;95537.53;4989248;28;20204;-61
2022/01/23 11:32:34;;;;;;;11.27;4.40;;;;;;;2.71;35.67;95532.34;4989787;28;20302;-62
2022/01/23 11:35:09;;;;;;;184.50;94.97;;;;;;;3.57;37.97;95528.28;4989393;28;20194;-62
2022/01/23 11:37:44;;;;;;;39.53;18.80;;;;;;;4.14;35.02;95523.34;4990495;28;20257;-62
2022/01/23 11:40:31;;;;;;;7.70;3.78;;;;;;;3.02;34.95;95504.22;4990278;28;20202;-61
2022/01/23 11:53:55;;;;;;;9.05;4.45;;;;;;;2.85;35.62;95497.78;4989141;28;20213;-61
2022/01/23 11:56:24;;;;;;;8.32;4.85;;;;;;;3.16;35.29;95501.69;4989991;28;20194;-59
2022/01/23 11:59:22;;;;;;;9.13;4.70;;;;;;;3.01;36.11;95492.25;4990039;28;20703;-62
2022/01/23 12:02:11;;;;;;;10.18;5.25;;;;;;;3.40;35.01;95480.41;4993285;28;20352;-56
2022/01/23 12:04:40;;;;;;;7.82;3.80;;;;;;;2.83;36.11;95479.06;4971264;28;20222;-60
2022/01/23 12:07:14;;;;;;;9.70;5.05;;;;;;;2.49;36.65;95486.84;4970450;28;20563;-63
2022/01/23 12:10:53;;;;;;;7.22;3.63;;;;;;;2.29;37.13;95480.78;4969673;28;20740;-64
2022/01/23 12:13:56;;;;;;;6.93;3.80;;;;;;;2.21;37.34;95482.72;4979368;28;20661;-62
2022/01/23 12:16:31;;;;;;;7.75;4.30;;;;;;;3.08;36.54;95487.13;4991686;28;20234;-62
2022/01/23 12:19:19;;;;;;;8.43;4.65;;;;;;;3.24;35.96;95501.50;5002012;28;20204;-61
2022/01/23 12:21:48;;;;;;;9.43;4.50;;;;;;;3.03;36.30;95485.09;4989148;28;20376;-62
2022/01/23 12:24:17;;;;;;;14.40;4.30;;;;;;;2.96;36.17;95486.06;4988923;28;20213;-61
2022/01/23 12:26:46;;;;;;;11.15;5.32;;;;;;;3.10;36.49;95496.25;4989524;28;20203;-65
2022/01/23 12:29:22;;;;;;;9.15;4.80;;;;;;;3.00;36.54;95495.84;4988578;28;20336;-61
2022/01/23 12:32:30;;;;;;;5.90;3.72;;;;;;;2.32;37.17;95490.72;4992742;28;20197;-61
2022/01/23 12:35:00;;;;;;;10.55;4.82;;;;;;;3.16;36.31;95488.75;4994619;28;20202;-63
2022/01/23 12:37:57;;;;;;;8.13;4.65;;;;;;;2.94;36.49;95486.25;5008864;28;20677;-63
2022/01/23 12:40:26;;;;;;;9.90;5.60;;;;;;;2.79;37.00;95477.84;4997697;28;20194;-62
2022/01/23 12:43:14;;;;;;;12.60;5.05;;;;;;;2.26;37.63;95481.16;4989819;28;20245;-62
2022/01/23 12:45:48;;;;;;;8.27;5.07;;;;;;;2.78;36.91;95478.84;4991895;28;20195;-63
2022/01/23 12:48:43;;;;;;;10.18;5.05;;;;;;;3.60;39.31;95486.41;4986330;28;20260;-61
2022/01/23 12:51:14;;;;;;;19.23;9.73;;;;;;;2.80;38.37;95487.22;4987027;28;20207;-61
2022/01/23 12:53:45;;;;;;;8.20;4.20;;;;;;;2.67;37.70;95484.56;4991005;28;20213;-63
2022/01/23 12:56:14;;;;;;;10.40;5.32;;;;;;;2.22;37.77;95495.47;4987761;28;20198;-62
2022/01/23 12:58:42;;;;;;;8.63;5.05;;;;;;;2.98;37.10;95497.81;4986712;28;20206;-63
2022/01/23 13:01:22;;;;;;;9.60;5.00;;;;;;;2.92;36.95;95487.44;4985619;28;20206;-63
2022/01/23 13:04:16;;;;;;;8.73;4.85;;;;;;;2.76;36.97;95496.34;4993037;28;20415;-61
2022/01/23 13:06:52;;;;;;;8.77;5.32;;;;;;;3.58;36.32;95496.97;4991201;28;20214;-63
2022/01/23 13:09:47;;;;;;;11.57;5.00;;;;;;;3.18;36.94;95492.72;4989699;28;20389;-65
2022/01/23 13:31:59;;;;;;;11.25;5.50;;;;;;;2.75;38.14;95512.88;4988675;28;20194;-62
2022/01/23 13:34:37;;;;;;;10.48;5.80;;;;;;;2.95;37.36;95508.59;4997432;28;20305;-63
2022/01/23 13:37:04;;;;;;;9.10;5.28;;;;;;;2.69;37.71;95518.81;4998781;28;20199;-62
2022/01/23 13:39:58;;;;;;;7.30;4.40;;;;;;;2.33;38.01;95513.03;4997709;28;20198;-62
2022/01/23 13:54:17;;;;;;;16.38;7.28;;;;;;;3.08;36.95;95506.00;4993603;28;20214;-61
2022/01/23 13:59:43;;;;;;;9.20;5.25;;;;;;;2.75;37.10;95501.72;5003037;28;20224;-61
2022/01/23 14:02:22;;;;;;;11.38;5.78;;;;;;;3.17;36.31;95501.47;5000940;28;20210;-61
2022/01/23 14:04:55;;;;;;;8.32;4.97;;;;;;;3.48;35.69;95509.53;4986108;28;20209;-61
2022/01/23 14:07:26;;;;;;;11.75;4.82;;;;;;;2.72;36.96;95513.25;4993533;28;20210;-60
2022/01/23 14:09:56;;;;;;;11.30;6.00;;;;;;;3.29;36.41;95519.81;4996424;28;20198;-61
2022/01/23 14:12:25;;;;;;;11.05;6.43;;;;;;;3.65;35.80;95515.16;4996012;28;20202;-61
2022/01/23 14:15:24;;;;;;;9.05;5.47;;;;;;;3.23;36.31;95512.84;4997623;28;20558;-61
2022/01/23 14:18:03;;;;;;;8.63;4.88;;;;;;;3.49;35.67;95521.47;5001389;28;20233;-61
2022/01/23 14:20:34;;;;;;;9.30;5.82;;;;;;;3.67;35.55;95523.50;5008272;28;20272;-59
2022/01/23 14:23:22;;;;;;;10.52;5.80;;;;;;;3.85;35.28;95524.50;5010927;28;20728;-60
2022/01/23 14:25:50;;;;;;;12.90;6.55;;;;;;;3.84;35.74;95532.50;5001761;28;20294;-60
2022/01/23 14:28:23;;;;;;;13.30;6.20;;;;;;;3.26;36.01;95525.41;4991222;28;20247;-62
2022/01/23 14:30:54;;;;;;;44.05;17.33;;;;;;;3.34;35.60;95533.00;4991485;28;20202;-60
2022/01/23 14:33:25;;;;;;;18.42;7.95;;;;;;;3.86;35.37;95528.72;4991161;28;20215;-61
2022/01/23 14:36:14;;;;;;;32.25;18.00;;;;;;;3.43;39.07;95542.19;4992445;28;20223;-61
2022/01/23 14:38:52;;;;;;;62.30;32.35;;;;;;;4.17;37.36;95517.75;4991136;28;20206;-62
2022/01/23 14:41:20;;;;;;;32.38;18.48;;;;;;;4.60;36.15;95537.03;4991129;28;20203;-62
2022/01/23 14:43:46;;;;;;;11.07;7.10;;;;;;;4.22;35.44;95543.88;4990421;28;20213;-61
2022/01/23 14:46:14;;;;;;;10.25;6.40;;;;;;;3.44;36.47;95542.00;4991324;28;20200;-61
2022/01/23 14:48:46;;;;;;;12.57;5.65;;;;;;;3.38;36.01;95544.56;4990969;28;20199;-62
2022/01/23 14:51:21;;;;;;;13.10;5.15;;;;;;;2.67;37.44;95546.66;4991017;28;20195;-60
2022/01/23 14:53:49;;;;;;;14.25;7.13;;;;;;;3.13;37.11;95540.88;4990585;28;20207;-60
2022/01/23 14:56:18;;;;;;;9.25;5.38;;;;;;;2.66;37.63;95539.91;4990986;28;20206;-62
2022/01/23 14:58:46;;;;;;;19.15;7.85;;;;;;;3.45;39.15;95547.97;4989674;28;20199;-61
2022/01/23 15:01:14;;;;;;;15.30;7.20;;;;;;;3.46;36.90;95549.56;4990790;28;20212;-61
2022/01/23 15:03:52;;;;;;;14.25;7.55;;;;;;;3.86;36.34;95548.66;5000568;28;20222;-60
2022/01/23 15:06:29;;;;;;;13.05;7.45;;;;;;;3.26;37.12;95552.09;4994700;28;20306;-61
2022/01/23 15:09:11;;;;;;;53.58;17.58;;;;;;;3.06;37.36;95531.31;4990140;28;20248;-61
2022/01/23 15:11:39;;;;;;;12.05;7.40;;;;;;;2.92;37.41;95554.72;4990397;28;20213;-62
2022/01/23 15:14:08;;;;;;;11.85;7.25;;;;;;;2.97;38.02;95562.75;4990075;28;20202;-62
2022/01/23 15:16:34;;;;;;;12.18;7.15;;;;;;;2.96;38.32;95551.59;4990455;28;20678;-62
2022/01/23 15:19:05;;;;;;;13.93;7.35;;;;;;;2.66;38.85;95564.97;4990419;28;20228;-61
2022/01/23 15:21:33;;;;;;;57.33;27.20;;;;;;;3.21;41.56;95556.28;4989837;28;20218;-62
2022/01/23 15:24:03;;;;;;;19.58;10.93;;;;;;;3.45;39.05;95563.53;4989717;28;20194;-62
2022/01/23 15:26:35;;;;;;;13.95;7.15;;;;;;;2.81;39.24;95584.53;4990017;28;20414;-62
2022/01/23 15:29:05;;;;;;;11.52;6.97;;;;;;;3.09;38.87;95545.66;4989501;28;20249;-61
2022/01/23 15:31:33;;;;;;;13.90;7.13;;;;;;;3.54;38.29;95575.31;4990200;28;20635;-61
2022/01/23 15:34:00;;;;;;;14.05;7.65;;;;;;;3.41;38.10;95567.50;4989124;28;20652;-62
2022/01/23 15:36:27;;;;;;;9.68;5.72;;;;;;;3.00;39.17;95588.22;4990668;28;20237;-61
2022/01/23 15:38:54;;;;;;;11.05;6.30;;;;;;;2.91;39.49;95579.03;4989586;28;20278;-61
2022/01/23 15:41:22;;;;;;;15.02;7.55;;;;;;;2.89;39.42;95578.41;4989700;28;20197;-60
2022/01/23 15:43:50;;;;;;;15.27;8.32;;;;;;;3.38;39.44;95575.63;4988780;28;20241;-60